Tiempo atmosférico en la estación meteorológica de Barco De Avila, Ávila (1012 m.)



Fecha
DESCASC
Temp. máxima en grados centígrados (hora)
DESCASC
Temp. mínima en grados centígrados (hora)
DESCASC
Temp. media en grados centígrados
DESCASC
Racha de viento máxima en m/sg (hora)
DESCASC
Velocidad máxima media en intervalos de 10 minutos(hora)
DESCASC
Precipitaciones diarias en mm
DESCASC
Precipitaciones de 00:00 a 06:00 en mm
DESCASC
Precipitaciones de 06:00 a 12:00 en mm
DESCASC
Precipitaciones de 12:00 a 18:00 en mm
DESCASC
Precipitaciones de 18:00 a 24:00 en mm
DESCASC
23-06-2019 26.1 (13:50) 10 (03:50) 18.1 11.39 (13:30) 7.22 (12:10) 0 0 0 0 0
22-06-2019 26.2 (17:50) 7 (07:00) 16.6 9.72 (18:00) 5.83 (18:00) 0 0 0 0 0
21-06-2019 24.2 (17:20) 7.8 (07:00) 16 7.78 (17:30) 4.44 (12:50) 0 0 0 0 0
20-06-2019 23 (16:20) 9.5 (00:00) 16.3 10.28 (16:50) 6.39 (17:30) 0 0 0 0 0
19-06-2019 21.6 (16:50) 12.1 (00:00) 16.9 11.67 (14:40) 7.5 (15:40) -- 0 0 -- 0
18-06-2019 22.6 (14:40) 11.5 (00:00) 17.1 12.22 (17:10) 8.61 (17:10) 0 0 0 0 0
17-06-2019 25.4 (17:20) 5 (00:00) 15.2 10.83 (14:30) 6.67 (14:40) 0 0 0 0 0
16-06-2019 24.8 (17:20) 4.3 (00:00) 14.5 8.61 (17:30) 5.28 (16:40) 0 0 0 0 0
15-06-2019 21.9 (17:50) 3.9 (00:00) 12.9 8.89 (17:10) 3.89 (18:00) 0 0 0 0 0
14-06-2019 17.9 (16:30) 2.4 (00:00) 10.1 11.94 (17:30) 7.5 (10:00) 0 0 0 0 0
13-06-2019 21.7 (18:30) -0.1 (00:00) 10.8 10.83 (17:30) 6.39 (15:20) 0 0 0 0 0
12-06-2019 20.7 (17:20) 0 (00:00) 10.4 9.17 (18:00) 6.11 (18:00) 0 0 0 0 0
11-06-2019 17.7 (18:30) 6.9 (00:00) 12.3 10.56 (17:40) 5 (14:40) 0 0 0 0 0
10-06-2019 22.5 (17:20) 4.7 (00:00) 13.6 8.06 (19:20) 4.17 (19:40) 0 0 0 0 0
09-06-2019 22.3 (17:00) 2.6 (00:00) 12.4 9.72 (15:10) 6.11 (18:10) 0 0 0 0 0
08-06-2019 23.1 (14:40) 0.3 (00:00) 11.7 8.33 (14:50) 4.72 (17:00) 0 0 0 0 0
07-06-2019 17.5 (18:20) 5 (00:00) 11.3 11.94 (00:10) 7.78 (00:10) 0.8 0.8 0 0 0
06-06-2019 17.5 (16:00) 0.3 (00:00) 8.9 14.44 (18:00) 9.72 (18:10) 0.8 0 0 0 0.8
05-06-2019 16.8 (17:00) 7.1 (00:00) 11.9 9.72 (15:50) 5.28 (04:00) 0 0 0 0 0
04-06-2019 21.3 (16:10) 11.9 (00:00) 16.6 13.33 (15:10) 8.61 (15:00) 0 0 0 0 0
03-06-2019 27.5 (17:40) 10.1 (00:00) 18.8 11.39 (15:30) 8.06 (15:30) 0 0 0 0 0
02-06-2019 29.2 (14:50) 10.1 (00:00) 19.7 10.56 (16:20) 6.39 (16:20) 0 0 0 0 0
01-06-2019 30.3 (16:30) 8.8 (00:00) 19.5 8.61 (15:00) 4.72 (17:30) 0 0 0 0 0
31-05-2019 30 (17:40) 9.7 (00:00) 19.8 9.44 (13:40) 5.56 (07:10) 0 0 0 0 0
30-05-2019 28.6 (16:50) 4.5 (00:00) 16.6 10 (17:50) 4.44 (15:50) 0 0 0 0 0
29-05-2019 23.8 (16:50) 3.3 (00:00) 13.5 9.17 (14:20) 5 (16:10) 0 0 0 0 0
28-05-2019 23 (16:50) 6.6 (00:00) 14.8 9.17 (15:00) 4.72 (17:20) 0 0 0 0 0
27-05-2019 25.1 (17:20) 6.8 (00:00) 16 8.61 (13:40) 4.17 (15:50) 0 0 0 0 0
26-05-2019 23.8 (18:00) 3 (00:00) 13.4 9.72 (18:30) 4.72 (17:20) 0 0 0 0 0
25-05-2019 20.9 (17:00) 3.2 (00:00) 12 10.28 (15:10) 5 (18:30) 0 0 0 0 0

Gráficas

Temp. máximas Temp. mínimas Temp. medias Precipitaciones Rachas de viento máximas Velocidades máximas media en intervalos de 10 minutos

Datos horarios

Fecha y hora oficial Temperatura (ºC) Velocidad del viento (km/h) Dirección del viento Racha (km/h) Dirección de racha Precipitación (mm) Presión (hPa) Tendencia (hPa) Humedad (%)
2019-06-23 23:00:00 18.2 3 Sudoeste 9 Sudoeste 0 -- -- 52
2019-06-23 22:00:00 20.1 4 Oeste 10 Oeste 0 -- -- 46
2019-06-23 21:00:00 21.4 5 Sudoeste 17 Oeste 0 -- -- 40
2019-06-23 20:00:00 22.6 11 Oeste 21 Sudoeste 0 -- -- 35
2019-06-23 19:00:00 23.2 15 Sudoeste 25 Sudoeste 0 -- -- 33
2019-06-23 18:00:00 23.7 17 Sudoeste 27 Sudoeste 0 -- -- 32
2019-06-23 17:00:00 24.3 14 Sudoeste 34 Sudoeste 0 -- -- 33
2019-06-23 16:00:00 24.6 22 Sudoeste 36 Oeste 0 -- -- 32
2019-06-23 15:00:00 24.5 24 Sudoeste 36 Sudoeste 0 -- -- 32
2019-06-23 14:00:00 25.6 20 Sudoeste 41 Sudoeste 0 -- -- 30
2019-06-23 13:00:00 23.3 24 Sudoeste 39 Sudoeste 0 -- -- 36
2019-06-23 12:00:00 22.5 22 Sudoeste 39 Sudoeste 0 -- -- 30
2019-06-23 11:00:00 21.9 21 Sudoeste 36 Sudoeste 0 -- -- 31
2019-06-23 10:00:00 19.8 18 Sudoeste 30 Sudoeste 0 -- -- 32
2019-06-23 09:00:00 13.3 3 Sudeste 10 Sudoeste 0 -- -- 60
2019-06-23 08:00:00 10.8 3 Sudoeste 8 Sudoeste 0 -- -- 66
2019-06-23 07:00:00 11.7 4 Sudoeste 11 Oeste 0 -- -- 56
2019-06-23 06:00:00 13.7 7 Oeste 19 Oeste 0 -- -- 49
2019-06-23 05:00:00 12.2 2 Nordeste 13 Nordeste 0 -- -- 58
2019-06-23 04:00:00 10 4 Este 11 Oeste 0 -- -- 69
2019-06-23 03:00:00 10.7 4 Oeste 9 Sudoeste 0 -- -- 69
2019-06-23 02:00:00 11.6 5 Sudoeste 12 Sudoeste 0 -- -- 66
2019-06-23 01:00:00 12.9 6 Oeste 11 Oeste 0 -- -- 63
2019-06-23 00:00:00 14.9 3 Sudoeste 13 Oeste 0 -- -- 57
2019-06-22 23:00:00 17.1 5 Sudoeste 13 Oeste 0 -- -- 53
2019-06-22 22:00:00 20.9 4 Sudoeste 18 Sudoeste 0 -- -- 41
2019-06-22 21:00:00 23.9 12 Sudoeste 23 Sudoeste 0 -- -- 31
2019-06-22 20:00:00 24.4 10 Sudoeste 28 Sudoeste 0 -- -- 31
2019-06-22 19:00:00 25.9 17 Sudoeste 30 Oeste 0 -- -- 30
2019-06-22 18:00:00 25.9 21 Sudoeste 35 Oeste 0 -- -- 32
2019-06-22 17:00:00 25.5 14 Sudoeste 28 Sudoeste 0 -- -- 36
2019-06-22 16:00:00 25.8 17 Sur 31 Sudoeste 0 -- -- 29
2019-06-22 15:00:00 25.2 15 Sudoeste 29 Sudoeste 0 -- -- 32
2019-06-22 14:00:00 25.6 16 Sur 27 Sudoeste 0 -- -- 35
2019-06-22 13:00:00 24.9 14 Sur 28 Sudoeste 0 -- -- 36
2019-06-22 12:00:00 24.5 14 Sur 24 Sudoeste 0 -- -- 35
2019-06-22 11:00:00 22.2 6 Oeste 13 Oeste 0 -- -- 43
2019-06-22 10:00:00 18.4 7 Oeste 12 Oeste 0 -- -- 53
2019-06-22 09:00:00 12.5 5 Sudoeste 14 Sudoeste 0 -- -- 73
2019-06-22 08:00:00 9.3 11 Sudoeste 19 Sudoeste 0 -- -- 80
2019-06-22 07:00:00 7 2 Sur 13 Sudoeste 0 -- -- 82
2019-06-22 06:00:00 8.1 7 Sudoeste 17 Oeste 0 -- -- 82
2019-06-22 05:00:00 8.3 4 Oeste 20 Sudoeste 0 -- -- 79
2019-06-22 04:00:00 9.2 10 Sudoeste 17 Sudoeste 0 -- -- 77
2019-06-22 03:00:00 9.3 11 Sudoeste 20 Sudoeste 0 -- -- 78
2019-06-22 02:00:00 10.5 7 Oeste 14 Sudoeste 0 -- -- 72
2019-06-22 01:00:00 11.7 7 Sudoeste 15 Sudoeste 0 -- -- 70
2019-06-22 00:00:00 12.9 8 Sudoeste 12 Sudoeste 0 -- -- 65
2019-06-21 23:00:00 18 5 Norte 8 Norte 0 -- -- 44
2019-06-21 22:00:00 20.2 4 Norte 21 Norte 0 -- -- 39
2019-06-21 21:00:00 22.1 10 Norte 20 Norte 0 -- -- 35
2019-06-21 20:00:00 23.2 11 Norte 21 Norte 0 -- -- 33
2019-06-21 19:00:00 24.1 10 Norte 21 Norte 0 -- -- 31
2019-06-21 18:00:00 24.1 11 Noroeste 28 Noroeste 0 -- -- 31
2019-06-21 17:00:00 23.4 12 Noroeste 27 Norte 0 -- -- 34
2019-06-21 16:00:00 23.9 7 Noroeste 25 Norte 0 -- -- 35
2019-06-21 15:00:00 22.1 9 Norte 24 Norte 0 -- -- 40
2019-06-21 14:00:00 21.5 10 Norte 28 Noroeste 0 -- -- 44
2019-06-21 13:00:00 20.2 13 Norte 27 Norte 0 -- -- 49
2019-06-21 12:00:00 19.5 14 Norte 28 Noroeste 0 -- -- 53
2019-06-21 11:00:00 18.2 12 Nordeste 23 Nordeste 0 -- -- 60
2019-06-21 10:00:00 16 8 Norte 14 Norte 0 -- -- 68
2019-06-21 09:00:00 13 3 Sudoeste 12 Sudoeste 0 -- -- 72
2019-06-21 08:00:00 9.1 8 Sudoeste 14 Sudoeste 0 -- -- 88
2019-06-21 07:00:00 7.8 10 Sudoeste 14 Sudoeste 0 -- -- 92
2019-06-21 06:00:00 8.5 5 Oeste 6 Oeste 0 -- -- 90
2019-06-21 05:00:00 9.7 0 Calma -- -- 0 -- -- 87
2019-06-21 04:00:00 11.2 0 Calma 6 Sur 0 -- -- 82
2019-06-21 03:00:00 13.7 3 Norte 13 Noroeste 0 -- -- 78
2019-06-21 02:00:00 14.7 5 Norte 21 Norte 0 -- -- 71
2019-06-21 01:00:00 15.7 7 Norte 21 Norte 0 -- -- 66
2019-06-21 00:00:00 16 6 Nordeste 11 Nordeste 0 -- -- 63
2019-06-20 23:00:00 16.4 4 Este 21 Norte 0 -- -- 59
2019-06-20 22:00:00 18.3 9 Oeste 27 Sudoeste 0 -- -- 52
2019-06-20 21:00:00 20 19 Sudoeste 29 Sudoeste 0 -- -- 48
2019-06-20 20:00:00 21.6 19 Oeste 34 Oeste 0 -- -- 44
2019-06-20 19:00:00 22 19 Oeste 35 Oeste 0 -- -- 43
2019-06-20 18:00:00 22.8 21 Oeste 35 Oeste 0 -- -- 42
2019-06-20 17:00:00 22.9 23 Sudoeste 37 Oeste 0 -- -- 43
2019-06-20 16:00:00 22.6 22 Sudoeste 34 Sudoeste 0 -- -- 46
2019-06-20 15:00:00 22.2 17 Sudoeste 28 Sudoeste 0 -- -- 43
2019-06-20 14:00:00 21.6 20 Sudoeste 29 Oeste 0 -- -- 50
2019-06-20 13:00:00 21.1 14 Sudoeste 27 Sudoeste 0 -- -- 52
2019-06-20 12:00:00 19.7 13 Oeste 21 Sudoeste 0 -- -- 53
2019-06-20 11:00:00 18.3 3 Sudeste 9 Oeste 0 -- -- 57
2019-06-20 10:00:00 15.2 8 Sudoeste 14 Oeste 0 -- -- 71
2019-06-20 09:00:00 13.7 8 Sudoeste 13 Sudoeste 0 -- -- 72
2019-06-20 08:00:00 11.5 7 Sudoeste 12 Sudoeste 0 -- -- 79
2019-06-20 07:00:00 10.9 5 Oeste 8 Oeste 0 -- -- 84
2019-06-20 06:00:00 10.1 3 Sudoeste 5 Oeste 0 -- -- 86
2019-06-20 05:00:00 10 2 Sudoeste 5 Sudoeste 0 -- -- 85
2019-06-20 04:00:00 9.9 4 Sudoeste 10 Oeste 0 -- -- 85
2019-06-20 03:00:00 9.7 3 Sudoeste 6 Oeste 0 -- -- 85
2019-06-20 02:00:00 10.8 5 Sudoeste 14 Noroeste 0 -- -- 81
2019-06-20 01:00:00 11.6 6 Sudoeste 8 Sudoeste 0 -- -- 81
2019-06-20 00:00:00 13.3 2 Noroeste 11 Oeste 0 -- -- 77
2019-06-19 23:00:00 15.7 6 Oeste 17 Sudoeste 0 -- -- 68
2019-06-19 22:00:00 17 9 Oeste 17 Oeste 0 -- -- 64
2019-06-19 21:00:00 18.8 12 Oeste 28 Sudoeste 0 -- -- 57
2019-06-19 20:00:00 19.9 16 Oeste 34 Sudoeste 0 -- -- 51
2019-06-19 19:00:00 19.4 24 Sudoeste 37 Sudoeste 0 -- -- 54
2019-06-19 18:00:00 20.1 26 Sudoeste 38 Sudoeste 0 -- -- 51
2019-06-19 17:00:00 21.1 24 Sudoeste 39 Oeste 0 -- -- 45
2019-06-19 16:00:00 20.9 24 Sudoeste 36 Sudoeste 0 -- -- 44
2019-06-19 15:00:00 20.6 21 Oeste -- -- -- -- -- 48
2019-06-19 14:00:00 20.2 22 Sudoeste 37 Sudoeste 0 -- -- 48
2019-06-19 13:00:00 18.6 20 Oeste 40 Sudoeste 0 -- -- 53
2019-06-19 12:00:00 17.3 23 Oeste 39 Oeste 0 -- -- 62
2019-06-19 11:00:00 15.8 22 Oeste 36 Oeste 0 -- -- 73
2019-06-19 10:00:00 15.3 18 Oeste 29 Oeste 0 -- -- 76
2019-06-19 09:00:00 15.2 20 Oeste 34 Sudoeste 0 -- -- 70
2019-06-19 08:00:00 13.4 8 Sur 21 Sudoeste 0 -- -- 81
2019-06-19 07:00:00 12.2 13 Sudoeste 24 Sudoeste 0 -- -- 85
2019-06-19 06:00:00 13 14 Sudoeste 31 Sudoeste 0 -- -- 80
2019-06-19 05:00:00 13.1 19 Sudoeste 35 Oeste 0 -- -- 81
2019-06-19 04:00:00 14.1 18 Oeste 28 Oeste 0 -- -- 73
2019-06-19 03:00:00 15.1 22 Sudoeste 34 Sudoeste 0 -- -- 66
2019-06-19 02:00:00 15 13 Oeste 26 Sudoeste 0 -- -- 68
2019-06-19 01:00:00 16 17 Oeste 36 Sudoeste 0 -- -- 69
2019-06-19 00:00:00 16.9 16 Oeste 37 Sudoeste 0 -- -- 68
2019-06-18 23:00:00 17.4 22 Sudoeste 32 Sudoeste 0 -- -- 66
2019-06-18 22:00:00 17.5 14 Oeste 26 Oeste 0 -- -- 66
2019-06-18 21:00:00 18.2 18 Oeste 30 Sudoeste 0 -- -- 63
2019-06-18 20:00:00 20.1 18 Sudoeste 35 Oeste 0 -- -- 55
2019-06-18 19:00:00 20.9 21 Sudoeste 39 Sudoeste 0 -- -- 51
2019-06-18 18:00:00 19.7 23 Sudoeste 44 Sudoeste 0 -- -- 53
2019-06-18 17:00:00 18.7 24 Sudoeste 44 Oeste 0 -- -- 61
2019-06-18 16:00:00 20 24 Sudoeste 44 Sudoeste 0 -- -- 47
2019-06-18 15:00:00 21.8 26 Sur 39 Sudoeste 0 -- -- 37
2019-06-18 14:00:00 21.7 23 Sudoeste 43 Oeste 0 -- -- 36
2019-06-18 13:00:00 20.8 29 Sudoeste 43 Oeste 0 -- -- 35
2019-06-18 12:00:00 20.1 24 Sudoeste 40 Oeste 0 -- -- 28
2019-06-18 11:00:00 19.2 23 Sudoeste 39 Sudoeste 0 -- -- 28
2019-06-18 10:00:00 17.4 27 Sudoeste 42 Sudoeste 0 -- -- 33
2019-06-18 09:00:00 16.2 25 Sudoeste 40 Sudoeste 0 -- -- 40
2019-06-18 08:00:00 15.5 18 Sudoeste 37 Sudoeste 0 -- -- 46
2019-06-18 07:00:00 14.5 17 Sudoeste 35 Sudoeste 0 -- -- 54
2019-06-18 06:00:00 12.5 12 Sudoeste 27 Oeste 0 -- -- 55
2019-06-18 05:00:00 11.5 13 Sudoeste 20 Sudoeste 0 -- -- 52
2019-06-18 04:00:00 12.5 12 Sudoeste 17 Sudoeste 0 -- -- 47
2019-06-18 03:00:00 13.5 3 Noroeste 8 Sudeste 0 -- -- 48
2019-06-18 02:00:00 14.4 3 Nordeste 10 Sudoeste 0 -- -- 50
2019-06-18 01:00:00 15.4 5 Sudoeste 10 Oeste 0 -- -- 45
2019-06-18 00:00:00 16.8 5 Sudoeste 13 Noroeste 0 -- -- 47
2019-06-17 23:00:00 18.8 5 Oeste 8 Oeste 0 -- -- 37
2019-06-17 22:00:00 19.7 0 Calma 9 Oeste 0 -- -- 37
2019-06-17 21:00:00 21.7 5 Oeste 21 Sudoeste 0 -- -- 29
2019-06-17 20:00:00 22.8 13 Sudoeste 23 Sudoeste 0 -- -- 25
2019-06-17 19:00:00 23.9 7 Sudoeste 26 Sur 0 -- -- 23
2019-06-17 18:00:00 24.3 15 Sur 34 Sudoeste 0 -- -- 23
2019-06-17 17:00:00 24.4 21 Sur 36 Sur 0 -- -- 22
2019-06-17 16:00:00 23.6 14 Sur 33 Sur 0 -- -- 29
2019-06-17 15:00:00 24.9 21 Sur 39 Sur 0 -- -- 27
2019-06-17 14:00:00 24.6 19 Sur 36 Sudeste 0 -- -- 25
2019-06-17 13:00:00 23.9 19 Sur 33 Sur 0 -- -- 28
2019-06-17 12:00:00 22.9 14 Sudoeste 27 Sudoeste 0 -- -- 33
2019-06-17 11:00:00 21.4 16 Oeste 30 Sudoeste 0 -- -- 37
2019-06-17 10:00:00 17.3 2 Sudoeste 7 Sur 0 -- -- 42
2019-06-17 09:00:00 12.4 3 Sudoeste 12 Sudoeste 0 -- -- 54
2019-06-17 08:00:00 7.3 5 Sudoeste 10 Sudoeste 0 -- -- 69
2019-06-17 07:00:00 5.1 4 Sudoeste 13 Sudoeste 0 -- -- 76
2019-06-17 06:00:00 6.2 10 Sudoeste 16 Sudoeste 0 -- -- 72
2019-06-17 05:00:00 7.5 9 Sudoeste 17 Oeste 0 -- -- 65
2019-06-17 04:00:00 7.2 12 Sudoeste 16 Sudoeste 0 -- -- 68
2019-06-17 03:00:00 8.5 13 Sudoeste 17 Sudoeste 0 -- -- 62
2019-06-17 02:00:00 10 10 Sudoeste 19 Sudoeste 0 -- -- 55
2019-06-17 01:00:00 11 8 Oeste 16 Sudoeste 0 -- -- 58
2019-06-17 00:00:00 12.5 6 Sudoeste 17 Sudoeste 0 -- -- 56
2019-06-16 23:00:00 14.8 8 Sudoeste 11 Sudoeste 0 -- -- 52
2019-06-16 22:00:00 19.1 4 Sudoeste 14 Oeste 0 -- -- 40
2019-06-16 21:00:00 22.6 8 Sudoeste 18 Sudoeste 0 -- -- 31
2019-06-16 20:00:00 22.3 9 Sudoeste 23 Oeste 0 -- -- 33
2019-06-16 19:00:00 23 14 Oeste 28 Oeste 0 -- -- 29
2019-06-16 18:00:00 24.5 17 Oeste 31 Oeste 0 -- -- 26
2019-06-16 17:00:00 24.7 15 Sudoeste 28 Sudoeste 0 -- -- 26
2019-06-16 16:00:00 23.8 13 Oeste 27 Sudoeste 0 -- -- 26
2019-06-16 15:00:00 22.2 17 Sudoeste 24 Sudoeste 0 -- -- 30
2019-06-16 14:00:00 23 14 Sudoeste 26 Sudoeste 0 -- -- 29
2019-06-16 13:00:00 22.3 15 Oeste 24 Sur 0 -- -- 31
2019-06-16 12:00:00 22.4 4 Sudoeste 9 Sudoeste 0 -- -- 31
2019-06-16 11:00:00 20.2 4 Oeste 10 Oeste 0 -- -- 34
2019-06-16 10:00:00 16.1 5 Este 9 Este 0 -- -- 42
2019-06-16 09:00:00 11.2 6 Sudoeste 11 Oeste 0 -- -- 57
2019-06-16 08:00:00 6.2 4 Sudoeste 12 Sudoeste 0 -- -- 76
2019-06-16 07:00:00 4.4 8 Sudoeste 16 Sudoeste 0 -- -- 80
2019-06-16 06:00:00 4.6 10 Oeste 18 Oeste 0 -- -- 80
2019-06-16 05:00:00 4.9 8 Sudoeste 17 Sudoeste 0 -- -- 79
2019-06-16 04:00:00 5.3 11 Sudoeste 17 Sudoeste 0 -- -- 79
2019-06-16 03:00:00 6.8 13 Sudoeste 18 Sudoeste 0 -- -- 74
2019-06-16 02:00:00 7.8 9 Sudoeste 14 Sudoeste 0 -- -- 69
2019-06-16 01:00:00 8.7 9 Sudoeste 16 Sudoeste 0 -- -- 68
2019-06-16 00:00:00 10.2 9 Sudoeste 13 Sudoeste 0 -- -- 66
2019-06-15 23:00:00 12.9 8 Oeste 13 Sudoeste 0 -- -- 57
2019-06-15 22:00:00 17.3 4 Sudoeste 14 Noroeste 0 -- -- 41
2019-06-15 21:00:00 20.3 9 Norte 18 Norte 0 -- -- 31
2019-06-15 20:00:00 21.2 9 Norte 18 Noroeste 0 -- -- 31
2019-06-15 19:00:00 21.5 8 Noroeste 22 Noroeste 0 -- -- 33
2019-06-15 18:00:00 21.3 14 Norte 32 Norte 0 -- -- 34
2019-06-15 17:00:00 21.5 6 Norte 24 Noroeste 0 -- -- 33
2019-06-15 16:00:00 21.1 8 Nordeste 26 Nordeste 0 -- -- 32
2019-06-15 15:00:00 20.2 7 Noroeste 21 Nordeste 0 -- -- 34
2019-06-15 14:00:00 18.7 8 Norte 21 Norte 0 -- -- 35
2019-06-15 13:00:00 17.6 6 Nordeste 15 Norte 0 -- -- 38
2019-06-15 12:00:00 15.8 5 Norte 14 Norte 0 -- -- 40
2019-06-15 11:00:00 14.2 6 Norte 13 Norte 0 -- -- 48
2019-06-15 10:00:00 12.4 4 Nordeste 8 Este 0 -- -- 57
2019-06-15 09:00:00 9.9 3 Oeste 5 Oeste 0 -- -- 70
2019-06-15 08:00:00 6.6 2 Sudoeste 8 Oeste 0 -- -- 82
2019-06-15 07:00:00 4.9 4 Oeste 8 Sudoeste 0 -- -- 87
2019-06-15 06:00:00 4.5 0 Calma 5 Sudoeste 0 -- -- 85
2019-06-15 05:00:00 4.4 4 Sudoeste 8 Oeste 0 -- -- 85
2019-06-15 04:00:00 4.2 6 Sudoeste 13 Sudoeste 0 -- -- 86
2019-06-15 03:00:00 4.9 8 Oeste 12 Sudoeste 0 -- -- 84
2019-06-15 02:00:00 6.4 6 Sudoeste 10 Nordeste 0 -- -- 76
2019-06-15 01:00:00 10.3 3 Nordeste 11 Norte 0 -- -- 61
2019-06-15 00:00:00 11.9 5 Noroeste 16 Noroeste 0 -- -- 54
2019-06-14 23:00:00 12.2 9 Oeste 24 Sudoeste 0 -- -- 53
2019-06-14 22:00:00 12.5 15 Oeste 33 Oeste 0 -- -- 52
2019-06-14 21:00:00 14.3 19 Oeste 36 Sudoeste 0 -- -- 46
2019-06-14 20:00:00 14.9 19 Sudoeste 36 Oeste 0 -- -- 42
2019-06-14 19:00:00 16.8 24 Oeste 40 Oeste 0 -- -- 39
2019-06-14 18:00:00 17.3 24 Sudoeste 43 Sudoeste 0 -- -- 38
2019-06-14 17:00:00 17.7 23 Oeste 36 Oeste 0 -- -- 40
2019-06-14 16:00:00 17.8 21 Oeste 38 Sudoeste 0 -- -- 34
2019-06-14 15:00:00 17.5 22 Oeste 39 Sudoeste 0 -- -- 33
2019-06-14 14:00:00 16.9 23 Oeste 36 Oeste 0 -- -- 32
2019-06-14 13:00:00 16.9 18 Sudoeste 37 Sudoeste 0 -- -- 39
2019-06-14 12:00:00 16.9 18 Sudoeste 39 Sudoeste 0 -- -- 41
2019-06-14 11:00:00 15.9 21 Sudoeste 40 Sudoeste 0 -- -- 42
2019-06-14 10:00:00 14.8 27 Sudoeste 38 Sudoeste 0 -- -- 45
2019-06-14 09:00:00 13 18 Sudoeste 27 Sudoeste 0 -- -- 47
2019-06-14 08:00:00 5.9 5 Nordeste 10 Sudoeste 0 -- -- 70
2019-06-14 07:00:00 2.4 3 Sudeste 12 Este 0 -- -- 80
2019-06-14 06:00:00 3.8 4 Norte 9 Oeste 0 -- -- 79
2019-06-14 05:00:00 4.2 5 Sudoeste 15 Sudoeste 0 -- -- 78
2019-06-14 04:00:00 5.1 9 Sudoeste 17 Sudoeste 0 -- -- 75
2019-06-14 03:00:00 6.3 7 Sudoeste 12 Oeste 0 -- -- 69
2019-06-14 02:00:00 7.4 10 Sudoeste 14 Oeste 0 -- -- 65
2019-06-14 01:00:00 9.7 2 Sur 13 Noroeste 0 -- -- 56
2019-06-14 00:00:00 11.1 4 Sudoeste 11 Sudoeste 0 -- -- 52
2019-06-13 23:00:00 13.9 5 Sudoeste 10 Oeste 0 -- -- 44
2019-06-13 22:00:00 17.4 3 Sudoeste 14 Sudoeste 0 -- -- 31
2019-06-13 21:00:00 19.6 13 Oeste 25 Sudoeste 0 -- -- 25
2019-06-13 20:00:00 20.6 14 Sudoeste 31 Sudoeste 0 -- -- 23
2019-06-13 19:00:00 21.2 18 Sudoeste 37 Sudoeste 0 -- -- 21
2019-06-13 18:00:00 21.4 18 Sudoeste 39 Sudoeste 0 -- -- 21
2019-06-13 17:00:00 21.3 19 Sudoeste 34 Sudoeste 0 -- -- 23
2019-06-13 16:00:00 20.8 21 Sudoeste 38 Sudoeste 0 -- -- 21
2019-06-13 15:00:00 21.4 18 Sudoeste 35 Sudoeste 0 -- -- 20
2019-06-13 14:00:00 20.7 21 Sudoeste 36 Sudoeste 0 -- -- 22
2019-06-13 13:00:00 19.6 20 Sudoeste 35 Sudoeste 0 -- -- 20
2019-06-13 12:00:00 18.5 22 Oeste 35 Oeste 0 -- -- 24
2019-06-13 11:00:00 15.6 9 Norte 21 Norte 0 -- -- 40
2019-06-13 10:00:00 12.2 9 Norte 19 Norte 0 -- -- 50
2019-06-13 09:00:00 6.9 2 Noroeste 9 Sudoeste 0 -- -- 62
2019-06-13 08:00:00 1.6 4 Sudoeste 8 Sudoeste 0 -- -- 81
2019-06-13 07:00:00 0.3 4 Oeste 9 Oeste 0 -- -- 84
2019-06-13 06:00:00 0.9 4 Oeste 9 Sudeste 0 -- -- 78
2019-06-13 05:00:00 2.5 4 Sudoeste 12 Sudoeste 0 -- -- 75
2019-06-13 04:00:00 3 6 Sudoeste 10 Sudoeste 0 -- -- 72
2019-06-13 03:00:00 4.6 8 Oeste 14 Sudoeste 0 -- -- 67
2019-06-13 02:00:00 5.2 9 Sudoeste 13 Sudoeste 0 -- -- 67
2019-06-13 01:00:00 6.6 5 Oeste 9 Sudoeste 0 -- -- 62
2019-06-13 00:00:00 8.6 7 Oeste 13 Sudoeste 0 -- -- 57
2019-06-12 23:00:00 11 8 Sudoeste 13 Sudoeste 0 -- -- 49
2019-06-12 22:00:00 15.4 12 Oeste 16 Oeste 0 -- -- 33
2019-06-12 21:00:00 18.6 9 Sudoeste 24 Oeste 0 -- -- 27
2019-06-12 20:00:00 19.8 13 Oeste 26 Oeste 0 -- -- 24
2019-06-12 19:00:00 20.3 15 Oeste 33 Oeste 0 -- -- 25
2019-06-12 18:00:00 20.2 22 Sudoeste 33 Sudoeste 0 -- -- 24
2019-06-12 17:00:00 20.6 15 Sudoeste 27 Oeste 0 -- -- 26
2019-06-12 16:00:00 20.3 13 Oeste 23 Oeste 0 -- -- 25
2019-06-12 15:00:00 19.6 17 Oeste 30 Sudoeste 0 -- -- 24
2019-06-12 14:00:00 18.8 14 Oeste 26 Sudoeste 0 -- -- 26
2019-06-12 13:00:00 18.3 11 Oeste 27 Norte 0 -- -- 26
2019-06-12 12:00:00 16.5 5 Noroeste 15 Noroeste 0 -- -- 34
2019-06-12 11:00:00 13.6 7 Nordeste 15 Norte 0 -- -- 40
2019-06-12 10:00:00 10.7 3 Nordeste 7 Nordeste 0 -- -- 47
2019-06-12 09:00:00 6.6 4 Sur 13 Sudoeste 0 -- -- 59
2019-06-12 08:00:00 2 9 Sudoeste 17 Sudoeste 0 -- -- 76
2019-06-12 07:00:00 0.2 8 Sudoeste 13 Sudoeste 0 -- -- 82
2019-06-12 06:00:00 0.6 7 Oeste 10 Oeste 0 -- -- 82
2019-06-12 05:00:00 0.8 5 Sudoeste 9 Sudoeste 0 -- -- 81
2019-06-12 04:00:00 1.4 2 Sudeste 11 Oeste 0 -- -- 77
2019-06-12 03:00:00 2.9 8 Sudoeste 14 Sudoeste 0 -- -- 72
2019-06-12 02:00:00 4.3 6 Sudoeste 14 Sudoeste 0 -- -- 65
2019-06-12 01:00:00 5.2 10 Sudoeste 15 Sudoeste 0 -- -- 62
2019-06-12 00:00:00 6.9 6 Oeste 12 Oeste 0 -- -- 56
2019-06-11 23:00:00 10.4 0 Calma 15 Norte 0 -- -- 41
2019-06-11 22:00:00 13.8 8 Nordeste 25 Nordeste 0 -- -- 29
2019-06-11 21:00:00 15.6 13 Nordeste 27 Norte 0 -- -- 28
2019-06-11 20:00:00 16.9 13 Norte 33 Norte 0 -- -- 25
2019-06-11 19:00:00 17.4 14 Norte 30 Nordeste 0 -- -- 24
2019-06-11 18:00:00 17.2 16 Nordeste 38 Norte 0 -- -- 24
2019-06-11 17:00:00 17.1 18 Nordeste 37 Nordeste 0 -- -- 24
2019-06-11 16:00:00 16.6 17 Nordeste 35 Nordeste 0 -- -- 27
2019-06-11 15:00:00 15.5 18 Nordeste 35 Nordeste 0 -- -- 36
2019-06-11 14:00:00 13.9 14 Nordeste 34 Este 0 -- -- 43
2019-06-11 13:00:00 13 16 Este 31 Este 0 -- -- 51
2019-06-11 12:00:00 12.8 14 Nordeste 32 Nordeste 0 -- -- 53
2019-06-11 11:00:00 12.1 11 Norte 27 Norte 0 -- -- 59
2019-06-11 10:00:00 11.4 9 Norte 19 Nordeste 0 -- -- 62
2019-06-11 09:00:00 10.4 9 Nordeste 20 Norte 0 -- -- 65
2019-06-11 08:00:00 10.5 7 Norte 19 Noroeste 0 -- -- 68
2019-06-11 07:00:00 10.1 3 Norte 8 Norte 0 -- -- 69
2019-06-11 06:00:00 9.2 3 Sudeste 9 Norte 0 -- -- 72
2019-06-11 05:00:00 10.7 2 Norte 12 Norte 0 -- -- 65
2019-06-11 04:00:00 11.6 6 Norte 13 Norte 0 -- -- 65
2019-06-11 03:00:00 12.3 5 Norte 13 Norte 0 -- -- 63
2019-06-11 02:00:00 11.7 2 Nordeste 12 Nordeste 0 -- -- 62
2019-06-11 01:00:00 13.3 4 Norte 13 Este 0 -- -- 54
2019-06-11 00:00:00 14.3 4 Nordeste 12 Oeste 0 -- -- 45
2019-06-10 23:00:00 15.3 4 Nordeste 12 Este 0 -- -- 34
2019-06-10 22:00:00 16.7 3 Sudeste 26 Noroeste 0 -- -- 31
2019-06-10 21:00:00 19.5 8 Noroeste 25 Norte 0 -- -- 28
2019-06-10 20:00:00 21 12 Noroeste 29 Noroeste 0 -- -- 29
2019-06-10 19:00:00 21.8 14 Noroeste 28 Noroeste 0 -- -- 28
2019-06-10 18:00:00 21.9 11 Noroeste 27 Noroeste 0 -- -- 22
2019-06-10 17:00:00 22.2 13 Noroeste 24 Norte 0 -- -- 25
2019-06-10 16:00:00 21.2 9 Norte 22 Norte 0 -- -- 30
2019-06-10 15:00:00 20.7 10 Norte 21 Norte 0 -- -- 28
2019-06-10 14:00:00 19.4 11 Norte 24 Norte 0 -- -- 33
2019-06-10 13:00:00 18.5 10 Noroeste 21 Norte 0 -- -- 39
2019-06-10 12:00:00 17.2 9 Nordeste 21 Nordeste 0 -- -- 43
2019-06-10 11:00:00 15.7 9 Norte 15 Nordeste 0 -- -- 49
2019-06-10 10:00:00 14 4 Este 9 Nordeste 0 -- -- 59
2019-06-10 09:00:00 9.6 4 Oeste 9 Sudoeste 0 -- -- 73
2019-06-10 08:00:00 6 5 Oeste 10 Sudoeste 0 -- -- 86
2019-06-10 07:00:00 5 7 Oeste 10 Oeste 0 -- -- 88
2019-06-10 06:00:00 6.3 2 Noroeste 5 Sudoeste 0 -- -- 85
2019-06-10 05:00:00 7.5 4 Sudoeste 6 Sudoeste 0 -- -- 79
2019-06-10 04:00:00 10.5 2 Oeste 7 Nordeste 0 -- -- 69
2019-06-10 03:00:00 11.1 3 Nordeste 10 Norte 0 -- -- 68
2019-06-10 02:00:00 11.6 3 Este 10 Norte 0 -- -- 64
2019-06-10 01:00:00 13.2 4 Norte 15 Norte 0 -- -- 59
2019-06-10 00:00:00 13.5 4 Nordeste 15 Noroeste 0 -- -- 54
2019-06-09 23:00:00 15 6 Norte 23 Noroeste 0 -- -- 47
2019-06-09 22:00:00 16 8 Norte 28 Noroeste 0 -- -- 41
2019-06-09 21:00:00 18.6 9 Noroeste 32 Noroeste 0 -- -- 36
2019-06-09 20:00:00 20.1 12 Noroeste 35 Noroeste 0 -- -- 34
2019-06-09 19:00:00 21 19 Oeste 32 Sudoeste 0 -- -- 33
2019-06-09 18:00:00 21 17 Oeste 31 Oeste 0 -- -- 36
2019-06-09 17:00:00 22.3 13 Oeste 30 Oeste 0 -- -- 32
2019-06-09 16:00:00 22 17 Oeste 35 Noroeste 0 -- -- 32
2019-06-09 15:00:00 20.9 17 Norte 33 Noroeste 0 -- -- 33
2019-06-09 14:00:00 19.8 12 Norte 23 Noroeste 0 -- -- 39
2019-06-09 13:00:00 18.6 9 Nordeste 24 Norte 0 -- -- 43
2019-06-09 12:00:00 17 11 Norte 20 Noroeste 0 -- -- 46
2019-06-09 11:00:00 15.4 7 Norte 19 Norte 0 -- -- 53
2019-06-09 10:00:00 13.3 12 Norte 21 Nordeste 0 -- -- 60
2019-06-09 09:00:00 11.6 12 Nordeste 20 Nordeste 0 -- -- 64
2019-06-09 08:00:00 6.3 9 Nordeste 16 Nordeste 0 -- -- 77
2019-06-09 07:00:00 2.8 5 Sudoeste 10 Sudoeste 0 -- -- 87
2019-06-09 06:00:00 4.1 8 Sudoeste 11 Sudoeste 0 -- -- 84
2019-06-09 05:00:00 4.7 5 Oeste 9 Oeste 0 -- -- 80
2019-06-09 04:00:00 5.6 5 Sudoeste 11 Sudoeste 0 -- -- 77
2019-06-09 03:00:00 6.2 6 Sudoeste 12 Oeste 0 -- -- 74
2019-06-09 02:00:00 7.3 5 Sudoeste 11 Oeste 0 -- -- 72
2019-06-09 01:00:00 9.7 4 Oeste 11 Oeste 0 -- -- 65
2019-06-09 00:00:00 11.6 5 Sudoeste 9 Sudoeste 0 -- -- 59
2019-06-08 23:00:00 14.4 7 Sudoeste 9 Sudoeste 0 -- -- 51
2019-06-08 22:00:00 16.8 3 Sudoeste 10 Oeste 0 -- -- 43
2019-06-08 21:00:00 19 9 Oeste 15 Oeste 0 -- -- 33
2019-06-08 20:00:00 20.4 13 Oeste 23 Sudoeste 0 -- -- 28
2019-06-08 19:00:00 21 10 Sudoeste 25 Sur 0 -- -- 28
2019-06-08 18:00:00 22.2 16 Sur 30 Sur 0 -- -- 24
2019-06-08 17:00:00 22.7 17 Sur 29 Sur 0 -- -- 26
2019-06-08 16:00:00 22.7 15 Sur 27 Sur 0 -- -- 24
2019-06-08 15:00:00 23 13 Sudoeste 30 Sudoeste 0 -- -- 23
2019-06-08 14:00:00 22.2 9 Sudeste 22 Sur 0 -- -- 26
2019-06-08 13:00:00 21.5 5 Sur 18 Sudeste 0 -- -- 25
2019-06-08 12:00:00 18.8 9 Norte 18 Norte 0 -- -- 29
2019-06-08 11:00:00 15.3 6 Nordeste 14 Norte 0 -- -- 43
2019-06-08 10:00:00 11.8 4 Norte 9 Noroeste 0 -- -- 53
2019-06-08 09:00:00 7.4 2 Este 5 Sur 0 -- -- 70
2019-06-08 08:00:00 2.2 3 Este 13 Sudoeste 0 -- -- 84
2019-06-08 07:00:00 0.4 9 Sudoeste 12 Sudoeste 0 -- -- 91
2019-06-08 06:00:00 1.2 5 Sudoeste 15 Sudoeste 0 -- -- 88
2019-06-08 05:00:00 1.9 10 Sudoeste 14 Oeste 0 -- -- 88
2019-06-08 04:00:00 2.4 9 Oeste 13 Sudoeste 0 -- -- 87
2019-06-08 03:00:00 3.5 8 Sudoeste 13 Sudoeste 0 -- -- 83
2019-06-08 02:00:00 4.1 9 Sudoeste 13 Oeste 0 -- -- 82
2019-06-08 01:00:00 5.2 7 Sudoeste 10 Sudoeste 0 -- -- 80
2019-06-08 00:00:00 6.7 5 Sudoeste 9 Sudoeste 0 -- -- 73
2019-06-07 23:00:00 9.5 3 Oeste 9 Norte 0 -- -- 59
2019-06-07 22:00:00 13 4 Norte 14 Norte 0 -- -- 43
2019-06-07 21:00:00 14.9 9 Noroeste 23 Norte 0 -- -- 39
2019-06-07 20:00:00 16.4 10 Norte 23 Norte 0 -- -- 37
2019-06-07 19:00:00 16.9 11 Norte 23 Norte 0 -- -- 36
2019-06-07 18:00:00 17.3 11 Noroeste 24 Noroeste 0 -- -- 37
2019-06-07 17:00:00 16.9 12 Norte 24 Norte 0 -- -- 37
2019-06-07 16:00:00 16.1 12 Este 26 Nordeste 0 -- -- 38
2019-06-07 15:00:00 15.4 7 Noroeste 20 Norte 0 -- -- 40
2019-06-07 14:00:00 14.3 10 Norte 27 Sudoeste 0 -- -- 45
2019-06-07 13:00:00 12.8 10 Noroeste 21 Norte 0 -- -- 46
2019-06-07 12:00:00 11.8 7 Norte 18 Noroeste 0 -- -- 51
2019-06-07 11:00:00 10.2 5 Noroeste 15 Norte 0 -- -- 60
2019-06-07 10:00:00 9.6 4 Norte 14 Noroeste 0 -- -- 62
2019-06-07 09:00:00 7.1 7 Norte 22 Oeste 0 -- -- 72
2019-06-07 08:00:00 7.2 6 Oeste 18 Este 0 -- -- 66
2019-06-07 07:00:00 6.3 6 Noroeste 28 Oeste 0 -- -- 67
2019-06-07 06:00:00 6.6 12 Noroeste 27 Sudoeste 0 -- -- 67
2019-06-07 05:00:00 6 5 Sudeste 28 Oeste 0.2 -- -- 75
2019-06-07 04:00:00 7.1 3 Norte 23 Norte 0 -- -- 79
2019-06-07 03:00:00 8.1 12 Norte 24 Oeste 0 -- -- 88
2019-06-07 02:00:00 9.1 12 Oeste 37 Sudoeste 0.2 -- -- 86
2019-06-07 01:00:00 10.5 21 Sudoeste 43 Sudoeste 0.4 -- -- 90
2019-06-07 00:00:00 10.8 24 Sudoeste 39 Sudoeste 0.6 -- -- 90
2019-06-06 23:00:00 10.6 22 Sudoeste 35 Sudoeste 0.2 -- -- 88
2019-06-06 22:00:00 11.1 14 Sudoeste 36 Sudoeste 0 -- -- 83
2019-06-06 21:00:00 14.3 18 Sudoeste 46 Sur 0 -- -- 60
2019-06-06 20:00:00 15.7 23 Sur 40 Sur 0 -- -- 46
2019-06-06 19:00:00 15.7 26 Sur 47 Sur 0 -- -- 45
2019-06-06 18:00:00 15.9 32 Sur 52 Sur 0 -- -- 44
2019-06-06 17:00:00 17.3 31 Sur 51 Sur 0 -- -- 39
2019-06-06 16:00:00 17.5 25 Sudoeste 47 Sudoeste 0 -- -- 39
2019-06-06 15:00:00 16.2 30 Sudoeste 49 Sudoeste 0 -- -- 39
2019-06-06 14:00:00 16.3 25 Oeste 40 Sudoeste 0 -- -- 37
2019-06-06 13:00:00 15 25 Oeste 39 Sudoeste 0 -- -- 41
2019-06-06 12:00:00 13.6 24 Sudoeste 40 Sudoeste 0 -- -- 43
2019-06-06 11:00:00 13.3 21 Sudoeste 32 Sudoeste 0 -- -- 44
2019-06-06 10:00:00 10.4 3 Sur 9 Sudoeste 0 -- -- 59
2019-06-06 09:00:00 6.2 8 Sudoeste 15 Sudoeste 0 -- -- 71
2019-06-06 08:00:00 2.2 9 Sudoeste 14 Sudoeste 0 -- -- 87
2019-06-06 07:00:00 0.5 3 Sudoeste 9 Sudoeste 0 -- -- 89
2019-06-06 06:00:00 1.3 5 Sudoeste 9 Sudoeste 0 -- -- 89
2019-06-06 05:00:00 2.4 5 Sudoeste 12 Oeste 0 -- -- 87
2019-06-06 04:00:00 2.9 2 Oeste 8 Oeste 0 -- -- 85
2019-06-06 03:00:00 4.5 5 Oeste 8 Sudoeste 0 -- -- 80
2019-06-06 02:00:00 6.9 4 Oeste 9 Nordeste 0 -- -- 70
2019-06-06 01:00:00 9.1 7 Nordeste 12 Nordeste 0 -- -- 59
2019-06-06 00:00:00 9.8 5 Nordeste 13 Nordeste 0 -- -- 58
2019-06-05 23:00:00 10.8 6 Norte 21 Norte 0 -- -- 55
2019-06-05 22:00:00 12.7 5 Norte 24 Noroeste 0 -- -- 47
2019-06-05 21:00:00 14.1 8 Noroeste 22 Noroeste 0 -- -- 42
2019-06-05 20:00:00 15.8 14 Norte 23 Norte 0 -- -- 37
2019-06-05 19:00:00 15.3 12 Noroeste 27 Oeste 0 -- -- 35
2019-06-05 18:00:00 15.2 17 Noroeste 32 Norte 0 -- -- 38
2019-06-05 17:00:00 16.8 13 Noroeste 35 Norte 0 -- -- 32
2019-06-05 16:00:00 15.9 15 Norte 35 Norte 0 -- -- 35
2019-06-05 15:00:00 15.1 17 Noroeste 31 Norte 0 -- -- 40
2019-06-05 14:00:00 14.2 17 Norte 31 Noroeste 0 -- -- 42
2019-06-05 13:00:00 13.6 8 Noroeste 30 Noroeste 0 -- -- 45
2019-06-05 12:00:00 11.4 14 Noroeste 27 Norte 0 -- -- 53
2019-06-05 11:00:00 9.8 13 Noroeste 27 Noroeste 0 -- -- 59
2019-06-05 10:00:00 9.2 8 Norte 22 Noroeste 0 -- -- 66
2019-06-05 09:00:00 7.5 6 Noroeste 34 Noroeste 0 -- -- 75
2019-06-05 08:00:00 7.3 5 Norte 18 Norte 0 -- -- 76
2019-06-05 07:00:00 7.3 11 Norte 31 Noroeste 0 -- -- 77
2019-06-05 06:00:00 7.9 8 Nordeste 27 Noroeste 0 -- -- 75
2019-06-05 05:00:00 8.4 12 Norte 32 Norte 0 -- -- 74
2019-06-05 04:00:00 8.9 19 Norte 34 Noroeste 0 -- -- 73
2019-06-05 03:00:00 9.8 13 Norte 27 Noroeste 0 -- -- 68
2019-06-05 02:00:00 10.9 13 Noroeste 30 Norte 0 -- -- 64
2019-06-05 01:00:00 12.2 12 Norte 26 Norte 0 -- -- 55
2019-06-05 00:00:00 13.3 14 Norte 25 Norte 0 -- -- 61
2019-06-04 23:00:00 14.5 9 Oeste 19 Noroeste 0 -- -- 68
2019-06-04 22:00:00 14.9 4 Sur 21 Sudoeste 0 -- -- 68
2019-06-04 21:00:00 16.6 9 Oeste 33 Sudoeste 0 -- -- 61
2019-06-04 20:00:00 17.6 21 Sudoeste 35 Sudoeste 0 -- -- 58
2019-06-04 19:00:00 19.3 23 Sudoeste 36 Oeste 0 -- -- 50
2019-06-04 18:00:00 19.7 22 Oeste 41 Oeste 0 -- -- 46
2019-06-04 17:00:00 20.7 28 Oeste 44 Oeste 0 -- -- 41
2019-06-04 16:00:00 20.9 29 Sudoeste 48 Sudoeste 0 -- -- 44
2019-06-04 15:00:00 20.8 31 Sudoeste 45 Sudoeste 0 -- -- 45
2019-06-04 14:00:00 20.9 26 Oeste 42 Sudoeste 0 -- -- 48
2019-06-04 13:00:00 20.7 23 Sudoeste 39 Sudoeste 0 -- -- 50
2019-06-04 12:00:00 20.4 19 Oeste 32 Oeste 0 -- -- 49
2019-06-04 11:00:00 18.5 9 Oeste 19 Oeste 0 -- -- 53
2019-06-04 10:00:00 16.5 6 Noroeste 21 Norte 0 -- -- 64
2019-06-04 09:00:00 14.5 14 Norte 24 Norte 0 -- -- 72
2019-06-04 08:00:00 13.2 11 Norte 22 Norte 0 -- -- 76
2019-06-04 07:00:00 14.2 15 Norte 26 Noroeste 0 -- -- 67
2019-06-04 06:00:00 14 8 Sudoeste 22 Sudoeste 0 -- -- 70
2019-06-04 05:00:00 14.7 16 Oeste 27 Sudoeste 0 -- -- 75
2019-06-04 04:00:00 15 18 Oeste 31 Oeste 0 -- -- 75
2019-06-04 03:00:00 12 4 Sur 15 Sudoeste 0 -- -- 73
2019-06-04 02:00:00 12 0 Calma 7 Sudoeste 0 -- -- 74
2019-06-04 01:00:00 14.1 2 Este 7 Este 0 -- -- 62
2019-06-04 00:00:00 15.6 3 Sudoeste 14 Sudoeste 0 -- -- 55
2019-06-03 23:00:00 18.1 5 Oeste 13 Oeste 0 -- -- 44
2019-06-03 22:00:00 21.3 11 Sudoeste 28 Sudoeste 0 -- -- 36
2019-06-03 21:00:00 23.8 15 Sudoeste 37 Sudoeste 0 -- -- 28
2019-06-03 20:00:00 25.4 24 Sudoeste 41 Oeste 0 -- -- 24
2019-06-03 19:00:00 26.7 20 Sudoeste 39 Sudoeste 0 -- -- 21
2019-06-03 18:00:00 27 22 Oeste 34 Oeste 0 -- -- 21
2019-06-03 17:00:00 27.4 19 Oeste 37 Oeste 0 -- -- 21
2019-06-03 16:00:00 26.9 21 Oeste 41 Sudoeste 0 -- -- 23
2019-06-03 15:00:00 26.5 23 Sudoeste 40 Sudoeste 0 -- -- 23
2019-06-03 14:00:00 26.2 19 Sudoeste 33 Sudoeste 0 -- -- 24
2019-06-03 13:00:00 24.8 21 Oeste 36 Sudoeste 0 -- -- 28
2019-06-03 12:00:00 23.9 21 Oeste 31 Sudoeste 0 -- -- 28
2019-06-03 11:00:00 23.2 3 Noroeste 9 Oeste 0 -- -- 36
2019-06-03 10:00:00 18.8 5 Sudoeste 9 Sudoeste 0 -- -- 50
2019-06-03 09:00:00 14.6 4 Este 8 Sudoeste 0 -- -- 63
2019-06-03 08:00:00 10.9 7 Sudoeste 13 Sudoeste 0 -- -- 74
2019-06-03 07:00:00 10.4 3 Sudoeste 7 Sudoeste 0 -- -- 76
2019-06-03 06:00:00 11 4 Sudoeste 11 Sudoeste 0 -- -- 73
2019-06-03 05:00:00 11.4 6 Sudoeste 10 Sudoeste 0 -- -- 72
2019-06-03 04:00:00 12.4 5 Oeste 10 Oeste 0 -- -- 70
2019-06-03 03:00:00 13.5 6 Oeste 10 Oeste 0 -- -- 66
2019-06-03 02:00:00 14.8 7 Sudoeste 14 Sudoeste 0 -- -- 60
2019-06-03 01:00:00 15.7 5 Sudoeste 9 Sudoeste 0 -- -- 65
2019-06-03 00:00:00 20.1 7 Nordeste 12 Nordeste 0 -- -- 37
2019-06-02 23:00:00 19.1 3 Oeste 16 Noroeste 0 -- -- 55
2019-06-02 22:00:00 20.5 5 Sudoeste 9 Sudoeste 0 -- -- 54
2019-06-02 21:00:00 24.3 3 Sudoeste 10 Sudoeste 0 -- -- 46
2019-06-02 20:00:00 26.2 4 Oeste 13 Sudoeste 0 -- -- 30
2019-06-02 19:00:00 27.3 12 Sudoeste 30 Sudoeste 0 -- -- 28
2019-06-02 18:00:00 27.8 18 Sudoeste 34 Sudoeste 0 -- -- 27
2019-06-02 17:00:00 29 20 Sudoeste 38 Sudoeste 0 -- -- 24
2019-06-02 16:00:00 29 21 Oeste 35 Oeste 0 -- -- 26
2019-06-02 15:00:00 29.1 18 Sudoeste 31 Oeste 0 -- -- 24
2019-06-02 14:00:00 29 18 Sudoeste 26 Oeste 0 -- -- 26
2019-06-02 13:00:00 28.3 7 Sudoeste 20 Sudoeste 0 -- -- 28
2019-06-02 12:00:00 27.2 6 Sudoeste 12 Oeste 0 -- -- 27
2019-06-02 11:00:00 23.8 4 Sudoeste 12 Sudoeste 0 -- -- 40
2019-06-02 10:00:00 20.3 9 Sudoeste 14 Sudoeste 0 -- -- 48
2019-06-02 09:00:00 15.8 10 Sudoeste 16 Sudoeste 0 -- -- 61
2019-06-02 08:00:00 12.2 12 Sudoeste 17 Sudoeste 0 -- -- 68
2019-06-02 07:00:00 10.2 14 Sudoeste 20 Sudoeste 0 -- -- 76
2019-06-02 06:00:00 10.6 9 Oeste 13 Sudoeste 0 -- -- 74
2019-06-02 05:00:00 11.2 10 Sudoeste 16 Oeste 0 -- -- 71
2019-06-02 04:00:00 11.9 10 Sudoeste 14 Sudoeste 0 -- -- 67
2019-06-02 03:00:00 12.9 10 Sudoeste 15 Sudoeste 0 -- -- 65
2019-06-02 02:00:00 13.6 6 Oeste 9 Oeste 0 -- -- 63
2019-06-02 01:00:00 14.9 2 Sudoeste 15 Este 0 -- -- 58
2019-06-02 00:00:00 16.2 8 Sudoeste 12 Oeste 0 -- -- 54
2019-06-01 23:00:00 18.7 4 Sur 9 Sudoeste 0 -- -- 49
2019-06-01 22:00:00 22.3 8 Sudoeste 24 Oeste 0 -- -- 38
2019-06-01 21:00:00 25.4 14 Oeste 27 Sudoeste 0 -- -- 31
2019-06-01 20:00:00 27.3 15 Oeste 24 Oeste 0 -- -- 28
2019-06-01 19:00:00 28.6 15 Oeste 26 Sudoeste 0 -- -- 28
2019-06-01 18:00:00 29.2 15 Sudoeste 28 Sudoeste 0 -- -- 27
2019-06-01 17:00:00 30.3 10 Oeste 24 Norte 0 -- -- 22
2019-06-01 16:00:00 29.5 15 Noroeste 25 Noroeste 0 -- -- 23
2019-06-01 15:00:00 29.7 13 Oeste 31 Oeste 0 -- -- 24
2019-06-01 14:00:00 29.6 10 Oeste 18 Oeste 0 -- -- 23
2019-06-01 13:00:00 28.6 8 Nordeste 21 Noroeste 0 -- -- 21
2019-06-01 12:00:00 27.1 5 Oeste 10 Noroeste 0 -- -- 28
2019-06-01 11:00:00 24.3 5 Sudoeste 9 Sudoeste 0 -- -- 35
2019-06-01 10:00:00 20.3 6 Sudoeste 15 Sudoeste 0 -- -- 41
2019-06-01 09:00:00 15.7 8 Sudoeste 17 Sudoeste 0 -- -- 52
2019-06-01 08:00:00 10.8 10 Sudoeste 19 Sudoeste 0 -- -- 66
2019-06-01 07:00:00 9.6 14 Sudoeste 19 Sudoeste 0 -- -- 66
2019-06-01 06:00:00 8.9 12 Sudoeste 20 Sudoeste 0 -- -- 70
2019-06-01 05:00:00 10.8 16 Sudoeste 23 Sudoeste 0 -- -- 61
2019-06-01 04:00:00 10 11 Oeste 17 Sudoeste 0 -- -- 64
2019-06-01 03:00:00 11.6 13 Sudoeste 18 Sudoeste 0 -- -- 59
2019-06-01 02:00:00 12.4 13 Sudoeste 21 Sudoeste 0 -- -- 57
2019-06-01 01:00:00 13.1 13 Sudoeste 18 Oeste 0 -- -- 58
2019-06-01 00:00:00 14.6 12 Sudoeste 16 Oeste 0 -- -- 56
2019-05-31 23:00:00 17.5 8 Sudoeste 13 Sudoeste 0 -- -- 51
2019-05-31 22:00:00 21.7 5 Sudoeste 12 Sudoeste 0 -- -- 37
2019-05-31 21:00:00 27.4 4 Noroeste 17 Noroeste 0 -- -- 20
2019-05-31 20:00:00 28.5 10 Norte 21 Norte 0 -- -- 18
2019-05-31 19:00:00 29.2 7 Norte 23 Norte 0 -- -- 18
2019-05-31 18:00:00 29.5 10 Noroeste 28 Noroeste 0 -- -- 18
2019-05-31 17:00:00 29.6 13 Norte 27 Norte 0 -- -- 19
2019-05-31 16:00:00 29.1 12 Oeste 31 Noroeste 0 -- -- 19
2019-05-31 15:00:00 28.2 13 Noroeste 31 Norte 0 -- -- 23
2019-05-31 14:00:00 28 9 Nordeste 34 Noroeste 0 -- -- 22
2019-05-31 13:00:00 27.4 5 Nordeste 18 Nordeste 0 -- -- 21
2019-05-31 12:00:00 26.7 6 Nordeste 15 Noroeste 0 -- -- 22
2019-05-31 11:00:00 23.4 5 Sudoeste 14 Sudoeste 0 -- -- 34
2019-05-31 10:00:00 19.3 10 Sudoeste 26 Sudoeste 0 -- -- 40
2019-05-31 09:00:00 14.8 15 Sudoeste 25 Sudoeste 0 -- -- 52
2019-05-31 08:00:00 11.6 17 Sudoeste 29 Sudoeste 0 -- -- 55
2019-05-31 07:00:00 10.4 19 Sudoeste 31 Sudoeste 0 -- -- 59
2019-05-31 06:00:00 10.6 14 Sudoeste 28 Sudoeste 0 -- -- 57
2019-05-31 05:00:00 10.2 15 Sudoeste 28 Sudoeste 0 -- -- 59
2019-05-31 04:00:00 10.9 9 Sudoeste 18 Sur 0 -- -- 56
2019-05-31 03:00:00 10.8 10 Sudoeste 22 Sudoeste 0 -- -- 59
2019-05-31 02:00:00 11.1 12 Sudoeste 17 Oeste 0 -- -- 55
2019-05-31 01:00:00 11.7 8 Oeste 16 Oeste 0 -- -- 56
2019-05-31 00:00:00 13.3 11 Sudoeste 15 Sudoeste 0 -- -- 52
2019-05-30 23:00:00 15.8 10 Sudoeste 13 Sudoeste 0 -- -- 48
2019-05-30 22:00:00 22.6 3 Este 18 Nordeste 0 -- -- 25
2019-05-30 21:00:00 25.5 11 Nordeste 24 Norte 0 -- -- 20
2019-05-30 20:00:00 26.9 10 Nordeste 27 Norte 0 -- -- 18
2019-05-30 19:00:00 27.6 13 Nordeste 28 Nordeste 0 -- -- 17
2019-05-30 18:00:00 28.2 12 Nordeste 36 Este 0 -- -- 17
2019-05-30 17:00:00 28.6 10 Nordeste 32 Norte 0 -- -- 17
2019-05-30 16:00:00 28.5 12 Norte 28 Norte 0 -- -- 19
2019-05-30 15:00:00 27.7 10 Nordeste 24 Noroeste 0 -- -- 19
2019-05-30 14:00:00 26.7 9 Norte 23 Norte 0 -- -- 19
2019-05-30 13:00:00 24.9 11 Noroeste 19 Oeste 0 -- -- 23
2019-05-30 12:00:00 22.8 5 Norte 15 Noroeste 0 -- -- 29
2019-05-30 11:00:00 20.4 5 Nordeste 9 Nordeste 0 -- -- 34
2019-05-30 10:00:00 16 3 Sur 8 Oeste 0 -- -- 48
2019-05-30 09:00:00 11.8 3 Sudeste 15 Sudoeste 0 -- -- 62
2019-05-30 08:00:00 7.1 10 Sudoeste 15 Sudoeste 0 -- -- 74
2019-05-30 07:00:00 4.9 8 Sudoeste 14 Sudoeste 0 -- -- 80
2019-05-30 06:00:00 5.7 10 Oeste 14 Sudoeste 0 -- -- 76
2019-05-30 05:00:00 5.9 11 Sudoeste 18 Sudoeste 0 -- -- 75
2019-05-30 04:00:00 7.2 9 Sudoeste 15 Sudoeste 0 -- -- 70
2019-05-30 03:00:00 8.5 10 Sudoeste 25 Oeste 0 -- -- 68
2019-05-30 02:00:00 9.9 12 Sudoeste 19 Sudoeste 0 -- -- 61
2019-05-30 01:00:00 10.9 12 Sudoeste 15 Sudoeste 0 -- -- 60
2019-05-30 00:00:00 12.5 6 Oeste 11 Sudoeste 0 -- -- 56
2019-05-29 23:00:00 17.2 6 Nordeste 13 Nordeste 0 -- -- 40
2019-05-29 22:00:00 18.9 8 Nordeste 21 Nordeste 0 -- -- 36
2019-05-29 21:00:00 21 12 Nordeste 27 Nordeste 0 -- -- 31
2019-05-29 20:00:00 22.4 15 Nordeste 30 Norte 0 -- -- 28
2019-05-29 19:00:00 23.3 15 Nordeste 32 Nordeste 0 -- -- 28
2019-05-29 18:00:00 23.6 14 Nordeste 30 Nordeste 0 -- -- 28
2019-05-29 17:00:00 23.7 15 Norte 31 Norte 0 -- -- 27
2019-05-29 16:00:00 23.7 13 Nordeste 30 Norte 0 -- -- 27
2019-05-29 15:00:00 23.4 13 Norte 33 Noroeste 0 -- -- 30
2019-05-29 14:00:00 22 15 Norte 32 Noroeste 0 -- -- 32
2019-05-29 13:00:00 20.9 14 Norte 31 Nordeste 0 -- -- 33
2019-05-29 12:00:00 19.5 4 Nordeste 14 Norte 0 -- -- 35
2019-05-29 11:00:00 16.7 5 Nordeste 11 Nordeste 0 -- -- 40
2019-05-29 10:00:00 13.9 3 Noroeste 9 Nordeste 0 -- -- 50
2019-05-29 09:00:00 9.8 5 Oeste 8 Oeste 0 -- -- 65
2019-05-29 08:00:00 5.1 2 Sudoeste 8 Oeste 0 -- -- 82
2019-05-29 07:00:00 3.7 3 Oeste 8 Sudoeste 0 -- -- 85
2019-05-29 06:00:00 4.4 5 Sudoeste 13 Sudoeste 0 -- -- 83
2019-05-29 05:00:00 4.6 6 Oeste 8 Sudoeste 0 -- -- 83
2019-05-29 04:00:00 5.3 3 Este 6 Este 0 -- -- 74
2019-05-29 03:00:00 6.4 2 Sudoeste 4 Este 0 -- -- 76
2019-05-29 02:00:00 8 3 Este 10 Oeste 0 -- -- 70
2019-05-29 01:00:00 9 4 Sudoeste 11 Oeste 0 -- -- 66
2019-05-29 00:00:00 10.7 5 Oeste 9 Oeste 0 -- -- 59
2019-05-28 23:00:00 13.4 3 Sudoeste 7 Norte 0 -- -- 50
2019-05-28 22:00:00 17.9 6 Norte 21 Nordeste 0 -- -- 34
2019-05-28 21:00:00 19.8 11 Nordeste 27 Nordeste 0 -- -- 30
2019-05-28 20:00:00 21.2 10 Nordeste 30 Nordeste 0 -- -- 28
2019-05-28 19:00:00 22.3 12 Norte 32 Norte 0 -- -- 26
2019-05-28 18:00:00 22.4 15 Nordeste 31 Norte 0 -- -- 25
2019-05-28 17:00:00 22.9 15 Norte 32 Noroeste 0 -- -- 22
2019-05-28 16:00:00 22.4 13 Norte 33 Norte 0 -- -- 21
2019-05-28 15:00:00 22.1 13 Norte 33 Nordeste 0 -- -- 23
2019-05-28 14:00:00 21.2 13 Norte 28 Norte 0 -- -- 24
2019-05-28 13:00:00 20.2 15 Norte 26 Norte 0 -- -- 27
2019-05-28 12:00:00 19.1 10 Norte 22 Norte 0 -- -- 38
2019-05-28 11:00:00 17 10 Norte 19 Norte 0 -- -- 52
2019-05-28 10:00:00 15.1 8 Norte 15 Nordeste 0 -- -- 62
2019-05-28 09:00:00 12.1 4 Sudeste 8 Nordeste 0 -- -- 74
2019-05-28 08:00:00 8 3 Oeste 8 Sudoeste 0 -- -- 86
2019-05-28 07:00:00 6.9 7 Sudoeste 12 Sudoeste 0 -- -- 91
2019-05-28 06:00:00 6.8 4 Sudoeste 7 Sudoeste 0 -- -- 88
2019-05-28 05:00:00 7.4 2 Oeste 4 Oeste 0 -- -- 85
2019-05-28 04:00:00 8.6 0 Calma 8 Sudoeste 0 -- -- 79
2019-05-28 03:00:00 10.1 5 Oeste 10 Oeste 0 -- -- 75
2019-05-28 02:00:00 11.1 3 Norte 8 Noroeste 0 -- -- 71
2019-05-28 01:00:00 11.8 6 Oeste 12 Oeste 0 -- -- 69
2019-05-28 00:00:00 12.8 9 Sudoeste 13 Sudoeste 0 -- -- 65
2019-05-27 23:00:00 16 3 Sudoeste 8 Nordeste 0 -- -- 56
2019-05-27 22:00:00 20.2 3 Norte 14 Nordeste 0 -- -- 39
2019-05-27 21:00:00 22.2 7 Norte 19 Norte 0 -- -- 35
2019-05-27 20:00:00 23.6 8 Norte 20 Norte 0 -- -- 33
2019-05-27 19:00:00 24.6 10 Nordeste 23 Oeste 0 -- -- 31
2019-05-27 18:00:00 24.9 7 Norte 29 Noroeste 0 -- -- 30
2019-05-27 17:00:00 24.3 10 Norte 25 Norte 0 -- -- 32
2019-05-27 16:00:00 24.3 13 Norte 28 Nordeste 0 -- -- 31
2019-05-27 15:00:00 24.3 13 Noroeste 28 Norte 0 -- -- 33
2019-05-27 14:00:00 23.8 10 Norte 31 Norte 0 -- -- 33
2019-05-27 13:00:00 23.3 8 Norte 29 Noroeste 0 -- -- 35
2019-05-27 12:00:00 21.5 11 Norte 21 Nordeste 0 -- -- 41
2019-05-27 11:00:00 20 5 Nordeste 12 Norte 0 -- -- 47
2019-05-27 10:00:00 17.2 0 Calma 5 Norte 0 -- -- 57
2019-05-27 09:00:00 13.8 0 Calma 6 Sur 0 -- -- 66
2019-05-27 08:00:00 8.6 5 Sudoeste 15 Oeste 0 -- -- 82
2019-05-27 07:00:00 7 3 Norte 9 Sudoeste 0 -- -- 80
2019-05-27 06:00:00 8.5 8 Sudoeste 15 Sudoeste 0 -- -- 81
2019-05-27 05:00:00 7.9 3 Sudoeste 11 Sudoeste 0 -- -- 80
2019-05-27 04:00:00 8.9 6 Sudoeste 12 Oeste 0 -- -- 76
2019-05-27 03:00:00 10.5 10 Sudoeste 16 Sudoeste 0 -- -- 69
2019-05-27 02:00:00 10.6 10 Sudoeste 15 Sudoeste 0 -- -- 70
2019-05-27 01:00:00 11.3 6 Sudoeste 14 Sudoeste 0 -- -- 67
2019-05-27 00:00:00 12.4 9 Sudoeste 13 Sudoeste 0 -- -- 64
2019-05-26 23:00:00 14.8 6 Sudoeste 9 Sudoeste 0 -- -- 54
2019-05-26 22:00:00 19.7 5 Nordeste 20 Norte 0 -- -- 38
2019-05-26 21:00:00 21.8 13 Nordeste 26 Norte 0 -- -- 34
2019-05-26 20:00:00 22.9 15 Nordeste 31 Norte 0 -- -- 32
2019-05-26 19:00:00 23.6 16 Norte 35 Norte 0 -- -- 31
2019-05-26 18:00:00 23.8 15 Norte 31 Norte 0 -- -- 31
2019-05-26 17:00:00 23.4 14 Norte 32 Nordeste 0 -- -- 32
2019-05-26 16:00:00 22.9 13 Norte 29 Nordeste 0 -- -- 33
2019-05-26 15:00:00 22 13 Norte 33 Nordeste 0 -- -- 35
2019-05-26 14:00:00 21.3 15 Norte 33 Nordeste 0 -- -- 37
2019-05-26 13:00:00 20.4 12 Norte 27 Norte 0 -- -- 41
2019-05-26 12:00:00 19.3 8 Nordeste 18 Norte 0 -- -- 44
2019-05-26 11:00:00 16.9 9 Norte 25 Norte 0 -- -- 49
2019-05-26 10:00:00 14.3 4 Sudeste 8 Este 0 -- -- 57
2019-05-26 09:00:00 8.9 4 Oeste 6 Sudoeste 0 -- -- 76
2019-05-26 08:00:00 4.6 2 Oeste 5 Sudoeste 0 -- -- 87
2019-05-26 07:00:00 3.2 4 Oeste 5 Oeste 0 -- -- 90
2019-05-26 06:00:00 3.6 2 Sur 8 Oeste 0 -- -- 88
2019-05-26 05:00:00 4.4 4 Oeste 6 Oeste 0 -- -- 86
2019-05-26 04:00:00 5.1 2 Noroeste 8 Oeste 0 -- -- 81
2019-05-26 03:00:00 6.3 5 Oeste 8 Sudoeste 0 -- -- 80
2019-05-26 02:00:00 7.2 0 Calma 6 Oeste 0 -- -- 73
2019-05-26 01:00:00 8.6 2 Sur 10 Sudoeste 0 -- -- 69
2019-05-26 00:00:00 10.2 5 Oeste 9 Oeste 0 -- -- 65
2019-05-25 23:00:00 13.6 2 Noroeste 16 Nordeste 0 -- -- 51
2019-05-25 22:00:00 16.4 9 Nordeste 23 Norte 0 -- -- 40
2019-05-25 21:00:00 18.3 15 Norte 31 Nordeste 0 -- -- 36
2019-05-25 20:00:00 19.6 18 Nordeste 32 Nordeste 0 -- -- 33
2019-05-25 19:00:00 20.4 15 Nordeste 32 Norte 0 -- -- 32
2019-05-25 18:00:00 20.7 16 Nordeste 35 Nordeste 0 -- -- 32
2019-05-25 17:00:00 20.9 16 Norte 32 Norte 0 -- -- 32
2019-05-25 16:00:00 20.5 15 Norte 37 Norte 0 -- -- 33
2019-05-25 15:00:00 19.2 15 Norte 34 Norte 0 -- -- 35
2019-05-25 14:00:00 18.1 14 Norte 29 Nordeste 0 -- -- 41
2019-05-25 13:00:00 16.5 14 Norte 32 Norte 0 -- -- 45
2019-05-25 12:00:00 15.1 15 Norte 35 Norte 0 -- -- 48
2019-05-25 11:00:00 14.8 11 Nordeste 28 Este 0 -- -- 51
2019-05-25 10:00:00 12.1 0 Calma 5 Sur 0 -- -- 60
2019-05-25 09:00:00 7.9 0 Calma 12 Sudoeste 0 -- -- 76
2019-05-25 08:00:00 4.2 4 Sudoeste 10 Oeste 0 -- -- 86
2019-05-25 07:00:00 3.3 6 Oeste 9 Sudoeste 0 -- -- 87
2019-05-25 06:00:00 4.3 0 Calma -- -- 0 -- -- 86
2019-05-25 05:00:00 6.4 0 Calma 16 Noroeste 0 -- -- 78
2019-05-25 04:00:00 8.2 9 Norte 17 Noroeste 0 -- -- 74
2019-05-25 03:00:00 6.1 3 Norte 10 Norte 0 -- -- 76
2019-05-25 02:00:00 7 3 Sur 7 Norte 0 -- -- 72
2019-05-25 01:00:00 8.7 2 Sudoeste 9 Oeste 0 -- -- 67
2019-05-25 00:00:00 9.3 6 Sudoeste 8 Sudoeste 0 -- -- 67